Time,TemperatureF,DewpointF,PressureIn,WindDirection,WindDirectionDegrees,WindSpeedMPH,WindSpeedGustMPH,Humidity,HourlyPrecipIn,Conditions,Clouds,dailyrainin,SoftwareType,DateUTC
2013-08-27 00:01:00,67.9,67.0,30.40,West,276,0.0,0.0,97,0.00,RA,,0.00,WeatherDisplay:10.37,2013-08-27 04:01:00,
2013-08-27 00:06:00,67.9,67.0,30.41,West,277,0.0,0.0,97,0.00,RA,,0.00,WeatherDisplay:10.37,2013-08-27 04:06:00,
2013-08-27 00:11:00,67.8,66.9,30.41,West,277,0.0,0.0,97,0.00,SCT,,0.00,WeatherDisplay:10.37,2013-08-27 04:11:00,
2013-08-27 00:16:00,67.7,66.8,30.40,West,276,0.0,0.0,97,0.00,SCT,,0.00,WeatherDisplay:10.37,2013-08-27 04:16:00,
2013-08-27 00:21:00,67.8,66.9,30.40,West,276,0.0,0.0,97,0.00,SCT,,0.00,WeatherDisplay:10.37,2013-08-27 04:21:00,
2013-08-27 00:26:00,67.7,66.8,30.40,West,276,0.0,0.0,97,0.00,SCT,,0.00,WeatherDisplay:10.37,2013-08-27 04:26:00,
2013-08-27 00:31:00,67.3,66.4,30.40,West,276,1.2,0.0,97,0.00,SCT,,0.00,WeatherDisplay:10.37,2013-08-27 04:31:00,
2013-08-27 00:36:00,67.1,66.2,30.40,West,276,1.2,1.2,97,0.00,SCT,,0.00,WeatherDisplay:10.37,2013-08-27 04:36:00,
2013-08-27 00:41:00,67.2,66.3,30.41,West,276,0.0,0.0,97,0.00,SCT,,0.00,WeatherDisplay:10.37,2013-08-27 04:41:00,
2013-08-27 00:46:00,67.1,66.2,30.40,West,276,0.0,0.0,97,0.00,SCT,,0.00,WeatherDisplay:10.37,2013-08-27 04:46:00,
2013-08-27 00:51:00,67.1,66.2,30.40,West,276,0.0,0.0,97,0.00,SCT,,0.00,WeatherDisplay:10.37,2013-08-27 04:51:00,
2013-08-27 00:56:00,67.0,66.1,30.40,West,276,0.0,0.0,97,0.00,SCT,,0.00,WeatherDisplay:10.37,2013-08-27 04:56:00,
2013-08-27 01:01:00,66.9,66.0,30.41,West,276,0.0,0.0,97,0.00,SCT,,0.00,WeatherDisplay:10.37,2013-08-27 05:01:00,
2013-08-27 01:06:00,67.0,66.4,30.41,West,276,0.0,0.0,98,0.00,SCT,,0.00,WeatherDisplay:10.37,2013-08-27 05:06:00,
2013-08-27 01:11:00,67.1,66.5,30.41,West,276,0.0,0.0,98,0.00,SCT,,0.00,WeatherDisplay:10.37,2013-08-27 05:11:00,
2013-08-27 01:16:00,67.3,66.7,30.41,West,276,0.0,0.0,98,0.00,SCT,,0.00,WeatherDisplay:10.37,2013-08-27 05:16:00,
2013-08-27 01:21:00,67.5,66.9,30.41,West,276,0.0,0.0,98,0.00,SCT,,0.00,WeatherDisplay:10.37,2013-08-27 05:21:00,
2013-08-27 01:26:00,67.5,66.9,30.41,West,276,1.2,0.0,98,0.00,SCT,,0.00,WeatherDisplay:10.37,2013-08-27 05:26:00,
2013-08-27 01:31:00,67.6,67.0,30.41,West,276,1.2,1.2,98,0.00,SCT,,0.00,WeatherDisplay:10.37,2013-08-27 05:31:00,
2013-08-27 01:36:00,67.6,67.0,30.41,West,276,2.3,2.3,98,0.00,SCT,,0.00,WeatherDisplay:10.37,2013-08-27 05:36:00,
2013-08-27 01:41:00,67.6,67.0,30.40,West,277,1.2,1.2,98,0.00,SCT,,0.00,WeatherDisplay:10.37,2013-08-27 05:41:00,
2013-08-27 01:46:00,67.7,67.1,30.41,West,277,0.0,0.0,98,0.00,SCT,,0.00,WeatherDisplay:10.37,2013-08-27 05:46:00,
2013-08-27 01:51:00,67.6,67.0,30.40,West,277,1.2,0.0,98,0.00,SCT,,0.00,WeatherDisplay:10.37,2013-08-27 05:51:00,
2013-08-27 01:56:00,67.5,66.9,30.41,West,276,1.2,0.0,98,0.00,SCT,,0.00,WeatherDisplay:10.37,2013-08-27 05:56:00,
2013-08-27 02:01:00,67.4,66.8,30.41,West,276,1.2,1.2,98,0.00,BKN,,0.00,WeatherDisplay:10.37,2013-08-27 06:01:00,
2013-08-27 02:06:00,67.4,66.8,30.40,West,276,1.0,1.0,98,0.00,BKN,,0.00,WeatherDisplay:10.37,2013-08-27 06:06:00,
2013-08-27 02:11:00,67.5,66.9,30.40,West,276,1.2,1.2,98,0.00,BKN,,0.00,WeatherDisplay:10.37,2013-08-27 06:11:00,
2013-08-27 02:16:00,67.4,66.8,30.40,West,276,0.0,0.1,98,0.00,BKN,,0.00,WeatherDisplay:10.37,2013-08-27 06:16:00,
2013-08-27 02:21:00,67.3,66.7,30.40,West,276,0.0,0.0,98,0.00,BKN,,0.00,WeatherDisplay:10.37,2013-08-27 06:21:00,
2013-08-27 02:26:00,67.1,66.5,30.40,West,276,0.0,0.0,98,0.00,BKN,,0.00,WeatherDisplay:10.37,2013-08-27 06:26:00,
2013-08-27 02:31:00,67.1,66.5,30.40,West,276,0.0,0.0,98,0.00,BKN,,0.00,WeatherDisplay:10.37,2013-08-27 06:31:00,
2013-08-27 02:36:00,67.3,66.7,30.40,West,276,1.2,1.2,98,0.00,BKN,,0.00,WeatherDisplay:10.37,2013-08-27 06:36:00,
2013-08-27 02:41:00,67.1,66.5,30.40,West,276,1.2,1.2,98,0.00,BKN,,0.00,WeatherDisplay:10.37,2013-08-27 06:41:00,
2013-08-27 02:46:00,67.1,66.5,30.40,West,276,0.0,0.0,98,0.00,BKN,,0.00,WeatherDisplay:10.37,2013-08-27 06:46:00,
2013-08-27 02:51:00,67.1,66.5,30.39,West,276,0.0,0.0,98,0.00,BKN,,0.00,WeatherDisplay:10.37,2013-08-27 06:51:00,
2013-08-27 02:56:00,67.1,66.5,30.40,West,276,0.0,0.0,98,0.00,BKN,,0.00,WeatherDisplay:10.37,2013-08-27 06:56:00,
2013-08-27 03:02:00,66.9,66.3,30.40,West,276,0.0,0.0,98,0.00,OVC,,0.00,WeatherDisplay:10.37,2013-08-27 07:02:00,
2013-08-27 03:07:00,66.5,65.9,30.40,West,276,0.0,0.0,98,0.00,OVC,,0.00,WeatherDisplay:10.37,2013-08-27 07:07:00,
2013-08-27 03:12:00,66.4,65.8,30.39,West,276,0.0,0.0,98,0.00,OVC,,0.00,WeatherDisplay:10.37,2013-08-27 07:12:00,
2013-08-27 03:17:00,66.3,65.7,30.39,West,276,0.0,0.0,98,0.00,OVC,,0.00,WeatherDisplay:10.37,2013-08-27 07:17:00,
2013-08-27 03:22:00,66.4,65.8,30.39,West,276,0.0,0.0,98,0.00,OVC,,0.00,WeatherDisplay:10.37,2013-08-27 07:22:00,
2013-08-27 03:27:00,66.4,65.8,30.39,West,276,0.0,0.0,98,0.00,OVC,,0.00,WeatherDisplay:10.37,2013-08-27 07:27:00,
2013-08-27 03:32:00,66.3,65.7,30.39,West,276,0.0,0.0,98,0.00,OVC,,0.00,WeatherDisplay:10.37,2013-08-27 07:32:00,
2013-08-27 03:37:00,66.5,65.9,30.39,West,276,0.0,0.0,98,0.00,OVC,,0.00,WeatherDisplay:10.37,2013-08-27 07:37:00,
2013-08-27 03:42:00,66.7,66.1,30.39,West,276,0.0,0.0,98,0.00,OVC,,0.00,WeatherDisplay:10.37,2013-08-27 07:42:00,
2013-08-27 03:47:00,66.5,65.9,30.38,West,276,0.0,0.0,98,0.00,OVC,,0.00,WeatherDisplay:10.37,2013-08-27 07:47:00,
2013-08-27 03:52:00,66.3,65.7,30.38,West,276,0.0,0.0,98,0.00,OVC,,0.00,WeatherDisplay:10.37,2013-08-27 07:52:00,
2013-08-27 03:57:00,66.0,65.4,30.38,West,276,0.0,0.0,98,0.00,OVC,,0.00,WeatherDisplay:10.37,2013-08-27 07:57:00,
2013-08-27 04:02:00,66.2,65.6,30.38,West,276,1.2,0.0,98,0.00,OVC,,0.00,WeatherDisplay:10.37,2013-08-27 08:02:00,
2013-08-27 04:07:00,66.1,65.5,30.38,West,276,0.0,0.0,98,0.00,OVC,,0.00,WeatherDisplay:10.37,2013-08-27 08:07:00,
2013-08-27 04:12:00,65.5,64.9,30.38,West,276,1.2,0.0,98,0.00,OVC,,0.00,WeatherDisplay:10.37,2013-08-27 08:12:00,
2013-08-27 04:17:00,65.1,64.5,30.38,West,276,0.0,0.0,98,0.00,OVC,,0.00,WeatherDisplay:10.37,2013-08-27 08:17:00,
2013-08-27 04:22:00,65.0,64.4,30.38,West,276,0.0,0.0,98,0.00,OVC,,0.00,WeatherDisplay:10.37,2013-08-27 08:22:00,
2013-08-27 04:27:00,65.0,64.4,30.38,West,276,0.0,0.0,98,0.00,OVC,,0.00,WeatherDisplay:10.37,2013-08-27 08:27:00,
2013-08-27 04:32:00,65.1,64.5,30.38,West,276,0.0,0.0,98,0.00,OVC,,0.00,WeatherDisplay:10.37,2013-08-27 08:32:00,
2013-08-27 04:37:00,65.0,64.4,30.38,West,276,0.0,0.0,98,0.00,OVC,,0.00,WeatherDisplay:10.37,2013-08-27 08:37:00,
2013-08-27 04:42:00,65.5,64.9,30.38,West,276,1.2,1.2,98,0.00,OVC,,0.00,WeatherDisplay:10.37,2013-08-27 08:42:00,
2013-08-27 04:47:00,65.9,65.6,30.38,West,276,1.2,1.2,99,0.00,OVC,,0.00,WeatherDisplay:10.37,2013-08-27 08:47:00,
2013-08-27 04:52:00,66.3,66.0,30.38,West,276,2.3,2.3,99,0.00,OVC,,0.00,WeatherDisplay:10.37,2013-08-27 08:52:00,
2013-08-27 04:57:00,66.7,66.4,30.38,West,281,3.5,3.5,99,0.00,OVC,,0.00,WeatherDisplay:10.37,2013-08-27 08:57:00,
2013-08-27 05:02:00,67.2,66.9,30.38,West,279,3.5,3.5,99,0.00,OVC,,0.00,WeatherDisplay:10.37,2013-08-27 09:02:00,
2013-08-27 05:07:00,67.4,67.1,30.38,West,271,4.0,4.0,99,0.00,OVC,,0.00,WeatherDisplay:10.37,2013-08-27 09:07:00,
2013-08-27 05:12:00,67.4,67.1,30.38,West,269,3.5,3.5,99,0.00,OVC,,0.00,WeatherDisplay:10.37,2013-08-27 09:12:00,
2013-08-27 05:17:00,67.6,67.3,30.38,WNW,282,3.5,3.5,99,0.00,OVC,,0.00,WeatherDisplay:10.37,2013-08-27 09:17:00,
2013-08-27 05:22:00,67.8,67.5,30.38,West,279,3.0,3.0,99,0.00,OVC,,0.00,WeatherDisplay:10.37,2013-08-27 09:22:00,
2013-08-27 05:27:00,67.8,67.5,30.38,WNW,287,2.3,2.3,99,0.00,OVC,,0.00,WeatherDisplay:10.37,2013-08-27 09:27:00,
2013-08-27 05:32:00,67.9,67.6,30.38,West,279,2.3,2.3,99,0.00,OVC,,0.00,WeatherDisplay:10.37,2013-08-27 09:32:00,
2013-08-27 05:37:00,67.9,67.6,30.38,WNW,286,3.5,3.5,99,0.00,OVC,,0.00,WeatherDisplay:10.37,2013-08-27 09:37:00,
2013-08-27 05:42:00,68.0,67.7,30.38,West,270,3.5,3.5,99,0.00,OVC,,0.00,WeatherDisplay:10.37,2013-08-27 09:42:00,
2013-08-27 05:47:00,68.1,67.8,30.39,WNW,283,3.5,3.5,99,0.00,OVC,,0.00,WeatherDisplay:10.37,2013-08-27 09:47:00,
2013-08-27 05:52:00,68.3,68.0,30.39,WNW,283,3.5,3.5,99,0.00,OVC,,0.00,WeatherDisplay:10.37,2013-08-27 09:52:00,
2013-08-27 05:57:00,68.4,67.8,30.39,West,279,2.3,2.3,98,0.00,OVC,,0.00,WeatherDisplay:10.37,2013-08-27 09:57:00,
2013-08-27 06:02:00,68.4,67.8,30.39,West,277,3.0,3.0,98,0.00,OVC,,0.00,WeatherDisplay:10.37,2013-08-27 10:02:00,
2013-08-27 06:07:00,68.4,67.8,30.39,West,281,2.3,2.3,98,0.00,OVC,,0.00,WeatherDisplay:10.37,2013-08-27 10:07:00,
2013-08-27 06:12:00,68.4,67.8,30.39,West,279,3.5,3.5,98,0.00,OVC,,0.00,WeatherDisplay:10.37,2013-08-27 10:12:00,
2013-08-27 06:17:00,68.4,67.8,30.39,WNW,282,3.5,3.5,98,0.00,OVC,,0.00,WeatherDisplay:10.37,2013-08-27 10:17:00,
2013-08-27 06:22:00,68.4,67.8,30.39,WNW,282,3.5,3.5,98,0.00,OVC,,0.00,WeatherDisplay:10.37,2013-08-27 10:22:00,
2013-08-27 06:27:00,68.4,67.5,30.40,West,281,2.3,2.3,97,0.00,OVC,,0.00,WeatherDisplay:10.37,2013-08-27 10:27:00,
2013-08-27 06:32:00,68.5,67.6,30.40,WNW,283,2.3,2.3,97,0.00,OVC,,0.00,WeatherDisplay:10.37,2013-08-27 10:32:00,
2013-08-27 06:37:00,68.5,67.6,30.40,WNW,288,3.5,3.5,97,0.00,OVC,,0.00,WeatherDisplay:10.37,2013-08-27 10:37:00,
2013-08-27 06:42:00,68.5,67.6,30.40,WNW,284,2.3,2.3,97,0.00,OVC,,0.00,WeatherDisplay:10.37,2013-08-27 10:42:00,
2013-08-27 06:47:00,68.6,67.7,30.40,WNW,288,3.5,3.5,97,0.00,OVC,,0.00,WeatherDisplay:10.37,2013-08-27 10:47:00,
2013-08-27 06:52:00,68.6,67.7,30.40,WNW,285,4.0,4.0,97,0.00,OVC,,0.00,WeatherDisplay:10.37,2013-08-27 10:52:00,
2013-08-27 06:57:00,68.7,67.8,30.40,WNW,283,3.5,3.5,97,0.00,OVC,,0.00,WeatherDisplay:10.37,2013-08-27 10:57:00,
2013-08-27 07:02:00,68.7,67.8,30.40,West,280,3.5,3.5,97,0.00,BKN,,0.00,WeatherDisplay:10.37,2013-08-27 11:02:00,
2013-08-27 07:07:00,68.8,67.9,30.40,WNW,283,3.5,3.5,97,0.00,BKN,,0.00,WeatherDisplay:10.37,2013-08-27 11:07:00,
2013-08-27 07:12:00,68.8,67.9,30.40,WNW,290,3.5,3.5,97,0.00,BKN,,0.00,WeatherDisplay:10.37,2013-08-27 11:12:00,
2013-08-27 07:17:00,68.8,67.9,30.40,West,270,3.5,3.5,97,0.00,BKN,,0.00,WeatherDisplay:10.37,2013-08-27 11:17:00,
2013-08-27 07:22:00,68.9,68.0,30.40,West,281,3.5,3.5,97,0.00,BKN,,0.00,WeatherDisplay:10.37,2013-08-27 11:22:00,
2013-08-27 07:27:00,68.9,68.0,30.40,West,274,3.5,3.5,97,0.00,BKN,,0.00,WeatherDisplay:10.37,2013-08-27 11:27:00,
2013-08-27 07:32:00,69.0,68.1,30.40,WNW,290,3.5,3.5,97,0.00,BKN,,0.00,WeatherDisplay:10.37,2013-08-27 11:32:00,
2013-08-27 07:37:00,68.9,67.7,30.40,WNW,288,3.5,3.5,96,0.00,BKN,,0.00,WeatherDisplay:10.37,2013-08-27 11:37:00,
2013-08-27 07:42:00,69.0,68.1,30.40,West,274,2.3,2.3,97,0.00,BKN,,0.00,WeatherDisplay:10.37,2013-08-27 11:42:00,
2013-08-27 07:47:00,69.1,68.2,30.40,West,278,3.0,3.0,97,0.00,BKN,,0.00,WeatherDisplay:10.37,2013-08-27 11:47:00,
2013-08-27 07:52:00,69.2,68.3,30.40,WNW,295,3.5,3.5,97,0.00,BKN,,0.00,WeatherDisplay:10.37,2013-08-27 11:52:00,
2013-08-27 07:57:00,69.4,68.5,30.40,WNW,293,2.3,2.3,97,0.00,BKN,,0.00,WeatherDisplay:10.37,2013-08-27 11:57:00,
2013-08-27 08:02:00,69.6,68.7,30.40,WNW,290,3.5,3.5,97,0.00,OVC,,0.00,WeatherDisplay:10.37,2013-08-27 12:02:00,
2013-08-27 08:07:00,69.6,68.4,30.40,WNW,292,4.0,4.0,96,0.01,RA,,0.01,WeatherDisplay:10.37,2013-08-27 12:07:00,
2013-08-27 08:12:00,69.7,68.5,30.40,WNW,301,3.5,3.5,96,0.01,RA,,0.01,WeatherDisplay:10.37,2013-08-27 12:12:00,
2013-08-27 08:17:00,69.8,68.6,30.40,WNW,299,3.5,3.5,96,0.01,OVC,,0.01,WeatherDisplay:10.37,2013-08-27 12:17:00,
2013-08-27 08:22:00,69.9,68.7,30.40,WNW,287,4.0,4.0,96,0.01,OVC,,0.01,WeatherDisplay:10.37,2013-08-27 12:22:00,
2013-08-27 08:27:00,70.1,68.9,30.40,WNW,294,2.3,2.3,96,0.01,OVC,,0.01,WeatherDisplay:10.37,2013-08-27 12:27:00,
2013-08-27 08:32:00,70.1,68.9,30.40,WNW,288,2.3,2.3,96,0.01,OVC,,0.01,WeatherDisplay:10.37,2013-08-27 12:32:00,
2013-08-27 08:37:00,70.3,69.1,30.39,SW,227,2.3,2.3,96,0.01,OVC,,0.01,WeatherDisplay:10.37,2013-08-27 12:37:00,
2013-08-27 08:42:00,70.5,69.3,30.39,West,276,2.3,2.3,96,0.01,OVC,,0.01,WeatherDisplay:10.37,2013-08-27 12:42:00,
2013-08-27 08:47:00,70.7,69.2,30.40,WNW,292,5.0,5.0,95,0.01,OVC,,0.01,WeatherDisplay:10.37,2013-08-27 12:47:00,
2013-08-27 08:52:00,70.6,69.1,30.40,West,266,3.5,3.5,95,0.01,OVC,,0.01,WeatherDisplay:10.37,2013-08-27 12:52:00,
2013-08-27 08:57:00,70.7,69.2,30.40,West,269,3.5,3.5,95,0.01,OVC,,0.01,WeatherDisplay:10.37,2013-08-27 12:57:00,
2013-08-27 09:02:00,70.7,69.2,30.40,NW,305,4.0,4.0,95,0.01,OVC,,0.01,WeatherDisplay:10.37,2013-08-27 13:02:00,
2013-08-27 09:07:00,70.6,69.1,30.40,West,274,5.8,5.8,95,0.00,OVC,,0.01,WeatherDisplay:10.37,2013-08-27 13:07:00,
2013-08-27 09:12:00,70.4,68.9,30.40,West,276,3.5,3.5,95,0.00,OVC,,0.01,WeatherDisplay:10.37,2013-08-27 13:12:00,
2013-08-27 09:17:00,70.4,68.9,30.41,WNW,296,3.5,3.5,95,0.00,OVC,,0.01,WeatherDisplay:10.37,2013-08-27 13:17:00,
2013-08-27 09:22:00,70.4,68.9,30.41,WNW,284,3.5,3.5,95,0.00,OVC,,0.01,WeatherDisplay:10.37,2013-08-27 13:22:00,
2013-08-27 09:27:00,70.2,69.0,30.41,WNW,293,6.0,6.0,96,0.00,OVC,,0.01,WeatherDisplay:10.37,2013-08-27 13:27:00,
2013-08-27 09:32:00,69.8,68.6,30.41,WNW,284,4.6,4.6,96,0.00,OVC,,0.01,WeatherDisplay:10.37,2013-08-27 13:32:00,
2013-08-27 09:37:00,69.8,68.6,30.41,WNW,289,5.0,5.0,96,0.00,OVC,,0.01,WeatherDisplay:10.37,2013-08-27 13:37:00,
2013-08-27 09:42:00,69.7,68.5,30.41,NW,307,3.5,3.5,96,0.00,OVC,,0.01,WeatherDisplay:10.37,2013-08-27 13:42:00,
2013-08-27 09:47:00,69.8,68.6,30.41,WNW,298,3.5,3.5,96,0.00,OVC,,0.01,WeatherDisplay:10.37,2013-08-27 13:47:00,
2013-08-27 09:52:00,69.8,68.6,30.41,WNW,303,3.5,3.5,96,0.00,OVC,,0.01,WeatherDisplay:10.37,2013-08-27 13:52:00,
2013-08-27 09:57:00,69.9,68.7,30.41,WNW,297,3.5,3.5,96,0.00,OVC,,0.01,WeatherDisplay:10.37,2013-08-27 13:57:00,
2013-08-27 10:02:00,70.0,68.8,30.41,West,280,2.3,2.3,96,0.00,OVC,,0.01,WeatherDisplay:10.37,2013-08-27 14:02:00,
2013-08-27 10:07:00,70.1,68.9,30.41,West,264,3.5,3.5,96,0.00,OVC,,0.01,WeatherDisplay:10.37,2013-08-27 14:07:00,
2013-08-27 10:12:00,70.3,69.1,30.41,WNW,290,3.5,3.5,96,0.00,OVC,,0.01,WeatherDisplay:10.37,2013-08-27 14:12:00,
2013-08-27 10:17:00,70.4,69.2,30.41,WNW,298,4.6,4.6,96,0.00,OVC,,0.01,WeatherDisplay:10.37,2013-08-27 14:17:00,
2013-08-27 10:22:00,70.5,69.0,30.41,WNW,286,3.5,3.5,95,0.00,OVC,,0.01,WeatherDisplay:10.37,2013-08-27 14:22:00,
2013-08-27 10:27:00,70.7,69.2,30.40,West,280,1.2,1.2,95,0.00,OVC,,0.01,WeatherDisplay:10.37,2013-08-27 14:27:00,
2013-08-27 10:32:00,71.0,69.5,30.40,West,281,2.3,2.3,95,0.00,OVC,,0.01,WeatherDisplay:10.37,2013-08-27 14:32:00,
2013-08-27 10:37:00,71.4,69.9,30.40,West,281,1.2,0.0,95,0.00,OVC,,0.01,WeatherDisplay:10.37,2013-08-27 14:37:00,
2013-08-27 10:42:00,71.5,69.7,30.40,West,281,2.3,2.3,94,0.00,OVC,,0.01,WeatherDisplay:10.37,2013-08-27 14:42:00,
2013-08-27 10:47:00,71.5,69.7,30.40,West,281,2.3,2.3,94,0.00,OVC,,0.01,WeatherDisplay:10.37,2013-08-27 14:47:00,
2013-08-27 10:52:00,71.8,70.0,30.41,West,280,2.3,2.3,94,0.00,OVC,,0.01,WeatherDisplay:10.37,2013-08-27 14:52:00,
2013-08-27 10:57:00,72.1,70.3,30.41,West,281,1.2,1.2,94,0.00,OVC,,0.01,WeatherDisplay:10.37,2013-08-27 14:57:00,
2013-08-27 11:02:00,72.2,69.7,30.41,WNW,291,3.5,3.5,92,0.00,OVC,,0.01,WeatherDisplay:10.37,2013-08-27 15:02:00,
2013-08-27 11:07:00,72.6,70.5,30.41,NW,307,2.3,2.3,93,0.00,OVC,,0.01,WeatherDisplay:10.37,2013-08-27 15:07:00,
2013-08-27 11:12:00,72.8,70.0,30.41,WNW,300,1.2,0.0,91,0.00,OVC,,0.01,WeatherDisplay:10.37,2013-08-27 15:12:00,
2013-08-27 11:17:00,72.9,70.4,30.41,WNW,298,3.5,3.5,92,0.00,OVC,,0.01,WeatherDisplay:10.37,2013-08-27 15:17:00,
2013-08-27 11:22:00,72.9,70.1,30.41,WNW,290,3.5,3.5,91,0.00,OVC,,0.01,WeatherDisplay:10.37,2013-08-27 15:22:00,
2013-08-27 11:27:00,73.0,69.9,30.41,West,274,4.6,4.6,90,0.00,OVC,,0.01,WeatherDisplay:10.37,2013-08-27 15:27:00,
2013-08-27 11:32:00,73.1,69.7,30.41,WNW,283,2.3,2.3,89,0.00,OVC,,0.01,WeatherDisplay:10.37,2013-08-27 15:32:00,
2013-08-27 11:37:00,73.5,70.4,30.41,WNW,295,2.3,2.3,90,0.00,OVC,,0.01,WeatherDisplay:10.37,2013-08-27 15:37:00,
2013-08-27 11:42:00,73.5,70.1,30.41,WNW,295,3.5,3.5,89,0.00,OVC,,0.01,WeatherDisplay:10.37,2013-08-27 15:42:00,
2013-08-27 11:47:00,73.6,70.2,30.41,NW,304,2.3,2.3,89,0.00,OVC,,0.01,WeatherDisplay:10.37,2013-08-27 15:47:00,
2013-08-27 11:52:00,73.9,70.5,30.41,NW,304,0.0,0.4,89,0.00,OVC,,0.01,WeatherDisplay:10.37,2013-08-27 15:52:00,
2013-08-27 11:57:00,74.4,70.3,30.41,WNW,302,2.0,2.0,87,0.00,OVC,,0.01,WeatherDisplay:10.37,2013-08-27 15:57:00,
2013-08-27 12:02:00,74.6,70.5,30.41,WNW,300,2.3,2.3,87,0.00,BKN,,0.01,WeatherDisplay:10.37,2013-08-27 16:02:00,
2013-08-27 12:07:00,74.6,70.1,30.40,WNW,300,2.3,2.3,86,0.00,BKN,,0.01,WeatherDisplay:10.37,2013-08-27 16:07:00,
2013-08-27 12:12:00,75.2,71.1,30.40,NE,35,2.3,2.3,87,0.00,BKN,,0.01,WeatherDisplay:10.37,2013-08-27 16:12:00,
2013-08-27 12:17:00,75.5,70.7,30.40,North,357,2.3,2.3,85,0.00,BKN,,0.01,WeatherDisplay:10.37,2013-08-27 16:17:00,
2013-08-27 12:22:00,76.3,71.1,30.40,ESE,118,3.5,3.5,84,0.00,BKN,,0.01,WeatherDisplay:10.37,2013-08-27 16:22:00,
2013-08-27 12:27:00,77.0,72.5,30.39,North,360,0.0,0.0,86,0.00,BKN,,0.01,WeatherDisplay:10.37,2013-08-27 16:27:00,
2013-08-27 12:32:00,77.9,72.7,30.39,NW,305,1.2,1.2,84,0.00,BKN,,0.01,WeatherDisplay:10.37,2013-08-27 16:32:00,
2013-08-27 12:37:00,78.6,73.0,30.39,WNW,289,2.3,2.3,83,0.00,BKN,,0.01,WeatherDisplay:10.37,2013-08-27 16:37:00,
2013-08-27 12:42:00,78.6,71.9,30.39,North,359,1.2,1.2,80,0.00,BKN,,0.01,WeatherDisplay:10.37,2013-08-27 16:42:00,
2013-08-27 12:47:00,78.1,70.7,30.39,NNE,16,1.2,1.2,78,0.00,BKN,,0.01,WeatherDisplay:10.37,2013-08-27 16:47:00,
2013-08-27 12:52:00,78.3,72.0,30.39,NNE,32,2.3,2.3,81,0.00,BKN,,0.01,WeatherDisplay:10.37,2013-08-27 16:52:00,
2013-08-27 12:57:00,79.1,71.3,30.39,NW,315,1.2,1.2,77,0.00,BKN,,0.01,WeatherDisplay:10.37,2013-08-27 16:57:00,
2013-08-27 13:02:00,79.0,71.6,30.39,East,80,3.5,3.5,78,0.00,BKN,,0.01,WeatherDisplay:10.37,2013-08-27 17:02:00,
2013-08-27 13:07:00,78.9,71.5,30.38,ENE,76,2.3,2.3,78,0.00,BKN,,0.01,WeatherDisplay:10.37,2013-08-27 17:07:00,
2013-08-27 13:12:00,78.9,71.8,30.39,NW,314,2.3,2.3,79,0.00,BKN,,0.01,WeatherDisplay:10.37,2013-08-27 17:12:00,
2013-08-27 13:17:00,79.3,73.0,30.38,NW,314,1.2,1.2,81,0.00,BKN,,0.01,WeatherDisplay:10.37,2013-08-27 17:17:00,
2013-08-27 13:22:00,79.6,71.8,30.39,NNE,15,3.5,3.5,77,0.00,BKN,,0.01,WeatherDisplay:10.37,2013-08-27 17:22:00,
2013-08-27 13:27:00,79.4,71.9,30.39,West,272,2.0,2.0,78,0.00,BKN,,0.01,WeatherDisplay:10.37,2013-08-27 17:27:00,
2013-08-27 13:32:00,80.1,73.4,30.38,SSW,200,2.0,2.0,80,0.00,BKN,,0.01,WeatherDisplay:10.37,2013-08-27 17:32:00,
2013-08-27 13:37:00,80.9,73.4,30.38,East,99,2.3,2.3,78,0.00,BKN,,0.01,WeatherDisplay:10.37,2013-08-27 17:37:00,
2013-08-27 13:42:00,81.1,72.8,30.38,South,189,1.2,0.0,76,0.00,BKN,,0.01,WeatherDisplay:10.37,2013-08-27 17:42:00,
2013-08-27 13:47:00,81.1,73.2,30.38,West,268,2.3,2.3,77,0.00,BKN,,0.01,WeatherDisplay:10.37,2013-08-27 17:47:00,
2013-08-27 13:52:00,81.2,74.1,30.38,WNW,284,4.0,4.0,79,0.00,BKN,,0.01,WeatherDisplay:10.37,2013-08-27 17:52:00,
2013-08-27 13:57:00,81.6,73.3,30.38,West,269,3.5,3.5,76,0.00,BKN,,0.01,WeatherDisplay:10.37,2013-08-27 17:57:00,
2013-08-27 14:02:00,82.2,73.9,30.38,SW,234,1.2,1.2,76,0.00,OVC,,0.01,WeatherDisplay:10.37,2013-08-27 18:02:00,
2013-08-27 14:07:00,82.2,72.7,30.37,WSW,252,3.5,3.5,73,0.00,OVC,,0.01,WeatherDisplay:10.37,2013-08-27 18:07:00,
2013-08-27 14:13:00,82.0,72.9,30.38,West,277,3.5,3.5,74,0.00,OVC,,0.01,WeatherDisplay:10.37,2013-08-27 18:13:00,
2013-08-27 14:18:00,81.6,73.3,30.37,WNW,288,1.2,1.2,76,0.00,OVC,,0.01,WeatherDisplay:10.37,2013-08-27 18:18:00,
2013-08-27 14:23:00,81.8,73.1,30.37,West,260,3.5,3.5,75,0.00,OVC,,0.01,WeatherDisplay:10.37,2013-08-27 18:23:00,
2013-08-27 14:28:00,81.7,72.6,30.37,West,271,5.0,5.0,74,0.00,OVC,,0.01,WeatherDisplay:10.37,2013-08-27 18:28:00,
2013-08-27 14:33:00,81.2,72.5,30.37,WNW,283,4.0,4.0,75,0.00,OVC,,0.01,WeatherDisplay:10.37,2013-08-27 18:33:00,
2013-08-27 14:38:00,80.7,71.6,30.37,WNW,286,4.6,4.6,74,0.00,OVC,,0.01,WeatherDisplay:10.37,2013-08-27 18:38:00,
2013-08-27 14:43:00,80.5,72.6,30.37,WNW,283,4.6,4.6,77,0.00,OVC,,0.01,WeatherDisplay:10.37,2013-08-27 18:43:00,
2013-08-27 14:48:00,80.3,72.4,30.36,West,274,4.0,4.0,77,0.00,OVC,,0.01,WeatherDisplay:10.37,2013-08-27 18:48:00,
2013-08-27 14:53:00,80.3,72.4,30.37,WNW,286,4.6,4.6,77,0.00,OVC,,0.01,WeatherDisplay:10.37,2013-08-27 18:53:00,
2013-08-27 14:58:00,80.8,73.3,30.37,WNW,287,3.5,3.5,78,0.00,OVC,,0.01,WeatherDisplay:10.37,2013-08-27 18:58:00,
2013-08-27 15:03:00,81.1,73.6,30.36,West,267,3.5,3.5,78,0.00,OVC,,0.01,WeatherDisplay:10.37,2013-08-27 19:03:00,
2013-08-27 15:08:00,81.4,72.7,30.36,NW,321,3.5,3.5,75,0.00,OVC,,0.01,WeatherDisplay:10.37,2013-08-27 19:08:00,
2013-08-27 15:13:00,81.1,72.8,30.36,WNW,293,3.5,3.5,76,0.00,OVC,,0.01,WeatherDisplay:10.37,2013-08-27 19:13:00,
2013-08-27 15:18:00,81.0,71.5,30.36,NW,317,3.5,3.5,73,0.00,OVC,,0.01,WeatherDisplay:10.37,2013-08-27 19:18:00,
2013-08-27 15:23:00,81.3,72.2,30.35,WNW,301,2.3,2.3,74,0.00,OVC,,0.01,WeatherDisplay:10.37,2013-08-27 19:23:00,
2013-08-27 15:28:00,81.1,72.8,30.35,NW,304,3.5,3.5,76,0.00,OVC,,0.01,WeatherDisplay:10.37,2013-08-27 19:28:00,
2013-08-27 15:33:00,80.8,74.0,30.35,NW,308,3.5,3.5,80,0.00,OVC,,0.01,WeatherDisplay:10.37,2013-08-27 19:33:00,
2013-08-27 15:38:00,81.3,73.4,30.35,WNW,288,2.3,2.3,77,0.00,OVC,,0.01,WeatherDisplay:10.37,2013-08-27 19:38:00,
2013-08-27 15:43:00,82.3,74.0,30.35,NNW,346,2.3,2.3,76,0.00,OVC,,0.01,WeatherDisplay:10.37,2013-08-27 19:43:00,
2013-08-27 15:48:00,82.7,75.5,30.34,NNW,329,3.5,3.5,79,0.00,OVC,,0.01,WeatherDisplay:10.37,2013-08-27 19:48:00,
2013-08-27 15:53:00,82.9,73.8,30.34,NNW,328,1.2,1.2,74,0.00,OVC,,0.01,WeatherDisplay:10.37,2013-08-27 19:53:00,
2013-08-27 15:58:00,82.4,72.5,30.34,ENE,75,2.0,2.0,72,0.00,OVC,,0.01,WeatherDisplay:10.37,2013-08-27 19:58:00,
2013-08-27 16:03:00,82.1,73.0,30.34,North,359,2.3,2.3,74,0.00,OVC,,0.01,WeatherDisplay:10.37,2013-08-27 20:03:00,
2013-08-27 16:08:00,81.7,73.0,30.34,North,10,0.0,0.0,75,0.00,OVC,,0.01,WeatherDisplay:10.37,2013-08-27 20:08:00,
2013-08-27 16:13:00,81.8,72.3,30.34,North,11,1.2,1.2,73,0.00,OVC,,0.01,WeatherDisplay:10.37,2013-08-27 20:13:00,
2013-08-27 16:18:00,82.0,73.7,30.34,North,11,0.0,0.0,76,0.00,OVC,,0.01,WeatherDisplay:10.37,2013-08-27 20:18:00,
2013-08-27 16:23:00,82.5,74.6,30.34,NNW,342,2.3,2.3,77,0.00,OVC,,0.01,WeatherDisplay:10.37,2013-08-27 20:23:00,
2013-08-27 16:28:00,82.0,73.7,30.34,WNW,293,2.3,2.3,76,0.00,OVC,,0.01,WeatherDisplay:10.37,2013-08-27 20:28:00,
2013-08-27 16:33:00,81.4,72.3,30.34,WNW,293,2.3,2.3,74,0.00,OVC,,0.01,WeatherDisplay:10.37,2013-08-27 20:33:00,
2013-08-27 16:38:00,81.4,72.3,30.34,WNW,300,0.0,0.0,74,0.00,OVC,,0.01,WeatherDisplay:10.37,2013-08-27 20:38:00,
2013-08-27 16:43:00,81.7,73.0,30.34,WNW,300,2.3,2.3,75,0.00,OVC,,0.01,WeatherDisplay:10.37,2013-08-27 20:43:00,
2013-08-27 16:48:00,81.5,74.4,30.34,WNW,300,0.0,0.0,79,0.00,OVC,,0.01,WeatherDisplay:10.37,2013-08-27 20:48:00,
2013-08-27 16:53:00,81.6,74.1,30.34,WNW,300,0.0,0.0,78,0.00,OVC,,0.01,WeatherDisplay:10.37,2013-08-27 20:53:00,
2013-08-27 16:58:00,81.4,74.3,30.34,WNW,300,0.0,0.0,79,0.00,OVC,,0.01,WeatherDisplay:10.37,2013-08-27 20:58:00,
2013-08-27 17:03:00,80.5,73.8,30.35,NW,307,1.2,1.2,80,0.00,OVC,,0.01,WeatherDisplay:10.37,2013-08-27 21:03:00,
2013-08-27 17:08:00,79.6,73.3,30.35,NNW,345,1.2,1.2,81,0.00,OVC,,0.01,WeatherDisplay:10.37,2013-08-27 21:08:00,
2013-08-27 17:13:00,79.2,73.2,30.35,North,4,3.5,3.5,82,0.00,OVC,,0.01,WeatherDisplay:10.37,2013-08-27 21:13:00,
2013-08-27 17:22:00,79.0,72.7,30.35,North,3,2.3,0.0,81,0.00,OVC,,0.01,WeatherDisplay:10.37,2013-08-27 21:22:00,
2013-08-27 17:33:00,78.9,72.6,30.34,NNE,16,2.3,2.3,81,0.00,OVC,,0.01,WeatherDisplay:10.37,2013-08-27 21:33:00,
2013-08-27 17:45:00,77.9,72.7,30.34,NNE,17,1.2,1.2,84,0.00,OVC,,0.01,WeatherDisplay:10.37,2013-08-27 21:45:00,
2013-08-27 17:50:00,77.6,72.0,30.34,NNE,13,0.0,0.5,83,0.00,OVC,,0.01,WeatherDisplay:10.37,2013-08-27 21:50:00,
2013-08-27 17:56:00,77.3,72.1,30.34,NNE,13,1.2,1.2,84,0.00,OVC,,0.01,WeatherDisplay:10.37,2013-08-27 21:56:00,
2013-08-27 18:01:00,77.2,72.3,30.34,North,2,1.2,0.0,85,0.00,OVC,,0.01,WeatherDisplay:10.37,2013-08-27 22:01:00,
2013-08-27 18:06:00,77.1,71.9,30.34,NNW,345,1.2,1.2,84,0.00,OVC,,0.01,WeatherDisplay:10.37,2013-08-27 22:06:00,
2013-08-27 18:11:00,77.4,72.2,30.34,NNE,18,2.3,2.3,84,0.00,OVC,,0.01,WeatherDisplay:10.37,2013-08-27 22:11:00,
2013-08-27 18:16:00,77.4,71.8,30.34,ENE,75,2.3,2.3,83,0.00,OVC,,0.01,WeatherDisplay:10.37,2013-08-27 22:16:00,
2013-08-27 18:21:00,77.8,72.2,30.34,North,9,1.2,1.2,83,0.00,OVC,,0.01,WeatherDisplay:10.37,2013-08-27 22:21:00,
2013-08-27 18:26:00,77.8,71.5,30.34,SE,131,2.3,2.3,81,0.00,OVC,,0.01,WeatherDisplay:10.37,2013-08-27 22:26:00,
2013-08-27 18:31:00,77.6,71.3,30.34,East,87,2.3,2.3,81,0.00,OVC,,0.01,WeatherDisplay:10.37,2013-08-27 22:31:00,
2013-08-27 18:36:00,77.5,71.6,30.34,ESE,103,0.0,0.0,82,0.00,OVC,,0.01,WeatherDisplay:10.37,2013-08-27 22:36:00,
2013-08-27 18:41:00,77.6,71.3,30.34,ESE,103,1.2,0.0,81,0.00,OVC,,0.01,WeatherDisplay:10.37,2013-08-27 22:41:00,
2013-08-27 18:46:00,77.4,71.1,30.34,ESE,102,2.3,2.3,81,0.00,OVC,,0.01,WeatherDisplay:10.37,2013-08-27 22:46:00,
2013-08-27 18:51:00,77.4,71.5,30.34,ESE,102,1.2,0.0,82,0.00,OVC,,0.01,WeatherDisplay:10.37,2013-08-27 22:51:00,
2013-08-27 18:56:00,77.6,71.7,30.34,East,97,1.2,1.2,82,0.00,OVC,,0.01,WeatherDisplay:10.37,2013-08-27 22:56:00,
2013-08-27 19:01:00,77.5,71.6,30.34,East,98,0.0,0.0,82,0.00,OVC,,0.01,WeatherDisplay:10.37,2013-08-27 23:01:00,
2013-08-27 19:06:00,77.4,71.5,30.34,East,98,0.0,0.0,82,0.00,SCT,,0.01,WeatherDisplay:10.37,2013-08-27 23:06:00,
2013-08-27 19:11:00,77.4,71.8,30.34,East,98,0.0,0.0,83,0.00,SCT,,0.01,WeatherDisplay:10.37,2013-08-27 23:11:00,
2013-08-27 19:16:00,77.4,71.5,30.34,East,98,0.0,0.0,82,0.00,SCT,,0.01,WeatherDisplay:10.37,2013-08-27 23:16:00,
2013-08-27 19:21:00,76.6,71.0,30.34,East,98,0.0,0.0,83,0.00,SCT,,0.01,WeatherDisplay:10.37,2013-08-27 23:21:00,
2013-08-27 19:26:00,76.1,71.3,30.34,East,98,0.0,0.0,85,0.00,SCT,,0.01,WeatherDisplay:10.37,2013-08-27 23:26:00,
2013-08-27 19:31:00,75.6,70.8,30.34,East,98,0.0,0.0,85,0.00,SCT,,0.01,WeatherDisplay:10.37,2013-08-27 23:31:00,
2013-08-27 19:36:00,74.8,70.7,30.34,East,98,0.0,0.0,87,0.00,SCT,,0.01,WeatherDisplay:10.37,2013-08-27 23:36:00,
2013-08-27 19:41:00,74.1,70.3,30.34,East,98,0.0,0.0,88,0.00,SCT,,0.01,WeatherDisplay:10.37,2013-08-27 23:41:00,
2013-08-27 19:46:00,73.7,70.6,30.35,East,98,0.0,0.0,90,0.00,SCT,,0.01,WeatherDisplay:10.37,2013-08-27 23:46:00,
2013-08-27 19:51:00,73.3,70.5,30.35,East,98,0.0,0.0,91,0.00,SCT,,0.01,WeatherDisplay:10.37,2013-08-27 23:51:00,
2013-08-27 19:56:00,72.9,70.4,30.35,East,98,0.0,0.0,92,0.00,SCT,,0.01,WeatherDisplay:10.37,2013-08-27 23:56:00,
2013-08-27 20:01:00,72.5,70.0,30.35,East,98,0.0,0.0,92,0.00,SCT,,0.01,WeatherDisplay:10.37,2013-08-28 00:01:00,
2013-08-27 20:06:00,72.2,70.1,30.35,East,98,0.0,0.0,93,0.00,SCT,,0.01,WeatherDisplay:10.37,2013-08-28 00:06:00,
2013-08-27 20:11:00,71.8,69.7,30.35,East,98,0.0,0.0,93,0.00,SCT,,0.01,WeatherDisplay:10.37,2013-08-28 00:11:00,
2013-08-27 20:16:00,71.4,69.3,30.35,East,98,0.0,0.0,93,0.00,SCT,,0.01,WeatherDisplay:10.37,2013-08-28 00:16:00,
2013-08-27 20:21:00,71.1,69.3,30.35,East,98,0.0,0.0,94,0.00,SCT,,0.01,WeatherDisplay:10.37,2013-08-28 00:21:00,
2013-08-27 20:26:00,70.9,69.4,30.35,East,98,0.0,0.0,95,0.00,SCT,,0.01,WeatherDisplay:10.37,2013-08-28 00:26:00,
2013-08-27 20:31:00,70.7,69.2,30.35,East,98,0.0,0.0,95,0.00,SCT,,0.01,WeatherDisplay:10.37,2013-08-28 00:31:00,
2013-08-27 20:36:00,70.6,69.1,30.35,East,98,1.2,0.0,95,0.00,SCT,,0.01,WeatherDisplay:10.37,2013-08-28 00:36:00,
2013-08-27 20:41:00,70.4,68.9,30.35,East,98,0.0,0.0,95,0.00,SCT,,0.01,WeatherDisplay:10.37,2013-08-28 00:41:00,
2013-08-27 20:46:00,70.1,68.6,30.35,East,98,0.0,0.0,95,0.00,SCT,,0.01,WeatherDisplay:10.37,2013-08-28 00:46:00,
2013-08-27 20:51:00,69.7,68.2,30.35,East,98,0.0,0.0,95,0.00,SCT,,0.01,WeatherDisplay:10.37,2013-08-28 00:51:00,
2013-08-27 20:56:00,69.7,68.5,30.36,East,98,0.0,0.0,96,0.00,SCT,,0.01,WeatherDisplay:10.37,2013-08-28 00:56:00,
2013-08-27 21:01:00,69.6,68.4,30.36,East,98,0.0,0.0,96,0.00,SCT,,0.01,WeatherDisplay:10.37,2013-08-28 01:01:00,
2013-08-27 21:06:00,69.5,68.3,30.36,East,98,0.0,0.0,96,0.00,SCT,,0.01,WeatherDisplay:10.37,2013-08-28 01:06:00,
2013-08-27 21:11:00,69.4,68.5,30.36,East,98,0.0,0.0,97,0.00,SCT,,0.01,WeatherDisplay:10.37,2013-08-28 01:11:00,
2013-08-27 21:16:00,69.2,68.0,30.36,East,98,0.0,0.0,96,0.00,SCT,,0.01,WeatherDisplay:10.37,2013-08-28 01:16:00,
2013-08-27 21:21:00,69.2,68.3,30.36,East,98,0.0,0.0,97,0.00,SCT,,0.01,WeatherDisplay:10.37,2013-08-28 01:21:00,
2013-08-27 21:26:00,69.0,68.1,30.36,East,98,1.0,1.0,97,0.00,SCT,,0.01,WeatherDisplay:10.37,2013-08-28 01:26:00,
2013-08-27 21:31:00,68.6,67.4,30.36,East,98,0.0,0.0,96,0.00,SCT,,0.01,WeatherDisplay:10.37,2013-08-28 01:31:00,
2013-08-27 21:36:00,68.6,67.7,30.36,East,98,0.0,0.0,97,0.00,SCT,,0.01,WeatherDisplay:10.37,2013-08-28 01:36:00,
2013-08-27 21:41:00,68.6,67.7,30.36,East,98,0.0,0.0,97,0.00,SCT,,0.01,WeatherDisplay:10.37,2013-08-28 01:41:00,
2013-08-27 21:46:00,68.7,67.8,30.36,East,98,0.0,0.0,97,0.00,SCT,,0.01,WeatherDisplay:10.37,2013-08-28 01:46:00,
2013-08-27 21:51:00,68.9,68.3,30.36,East,98,0.0,0.0,98,0.00,SCT,,0.01,WeatherDisplay:10.37,2013-08-28 01:51:00,
2013-08-27 21:56:00,68.8,67.9,30.36,East,98,0.0,0.1,97,0.00,SCT,,0.01,WeatherDisplay:10.37,2013-08-28 01:56:00,
2013-08-27 22:01:00,68.1,67.2,30.36,East,98,0.0,0.0,97,0.00,OVC,,0.01,WeatherDisplay:10.37,2013-08-28 02:01:00,
2013-08-27 22:06:00,68.0,67.1,30.36,East,98,1.0,0.0,97,0.00,OVC,,0.01,WeatherDisplay:10.37,2013-08-28 02:06:00,
2013-08-27 22:11:00,68.1,67.2,30.36,East,98,0.0,0.0,97,0.00,OVC,,0.01,WeatherDisplay:10.37,2013-08-28 02:11:00,
2013-08-27 22:16:00,68.1,67.2,30.36,East,98,0.0,0.0,97,0.00,OVC,,0.01,WeatherDisplay:10.37,2013-08-28 02:16:00,
2013-08-27 22:21:00,68.0,67.1,30.36,East,98,0.0,0.0,97,0.00,OVC,,0.01,WeatherDisplay:10.37,2013-08-28 02:21:00,
2013-08-27 22:26:00,68.3,67.7,30.36,East,98,0.0,0.0,98,0.00,OVC,,0.01,WeatherDisplay:10.37,2013-08-28 02:26:00,
2013-08-27 22:31:00,68.5,67.9,30.36,East,98,1.2,1.2,98,0.00,OVC,,0.01,WeatherDisplay:10.37,2013-08-28 02:31:00,
2013-08-27 22:36:00,68.6,68.0,30.36,East,98,1.2,0.0,98,0.00,OVC,,0.01,WeatherDisplay:10.37,2013-08-28 02:36:00,
2013-08-27 22:41:00,68.4,67.8,30.36,East,98,0.0,0.0,98,0.00,OVC,,0.01,WeatherDisplay:10.37,2013-08-28 02:41:00,
2013-08-27 22:46:00,68.4,67.8,30.36,East,98,1.2,0.0,98,0.00,OVC,,0.01,WeatherDisplay:10.37,2013-08-28 02:46:00,
2013-08-27 22:51:00,68.2,67.6,30.36,East,98,0.0,0.0,98,0.00,OVC,,0.01,WeatherDisplay:10.37,2013-08-28 02:51:00,
2013-08-27 22:56:00,67.9,67.0,30.36,East,98,0.0,0.0,97,0.00,OVC,,0.01,WeatherDisplay:10.37,2013-08-28 02:56:00,
2013-08-27 23:01:00,67.3,66.4,30.37,East,98,0.0,0.0,97,0.00,OVC,,0.01,WeatherDisplay:10.37,2013-08-28 03:01:00,
2013-08-27 23:06:00,67.0,66.1,30.37,East,98,0.0,0.0,97,0.00,OVC,,0.01,WeatherDisplay:10.37,2013-08-28 03:06:00,
2013-08-27 23:11:00,67.1,66.5,30.36,East,98,0.0,0.0,98,0.00,OVC,,0.01,WeatherDisplay:10.37,2013-08-28 03:11:00,
2013-08-27 23:16:00,66.7,65.8,30.36,East,99,2.3,2.3,97,0.00,OVC,,0.01,WeatherDisplay:10.37,2013-08-28 03:16:00,
2013-08-27 23:21:00,66.8,66.2,30.36,East,99,1.2,0.0,98,0.00,OVC,,0.01,WeatherDisplay:10.37,2013-08-28 03:21:00,
2013-08-27 23:26:00,67.5,66.9,30.36,WSW,246,0.0,0.4,98,0.00,OVC,,0.01,WeatherDisplay:10.37,2013-08-28 03:26:00,
2013-08-27 23:32:00,68.0,67.4,30.36,WSW,250,1.2,1.2,98,0.00,OVC,,0.01,WeatherDisplay:10.37,2013-08-28 03:32:00,
2013-08-27 23:37:00,68.2,67.6,30.36,WSW,250,0.0,0.0,98,0.00,OVC,,0.01,WeatherDisplay:10.37,2013-08-28 03:37:00,
2013-08-27 23:42:00,68.3,67.7,30.35,WSW,250,1.2,0.0,98,0.00,OVC,,0.01,WeatherDisplay:10.37,2013-08-28 03:42:00,
2013-08-27 23:47:00,68.6,68.0,30.36,WSW,250,1.2,1.2,98,0.00,OVC,,0.01,WeatherDisplay:10.37,2013-08-28 03:47:00,
2013-08-27 23:52:00,68.8,68.2,30.35,WSW,250,1.2,1.2,98,0.00,OVC,,0.01,WeatherDisplay:10.37,2013-08-28 03:52:00,
2013-08-27 23:57:00,68.6,68.0,30.36,WSW,249,1.2,1.2,98,0.00,OVC,,0.01,WeatherDisplay:10.37,2013-08-28 03:57:00,